createdAt,value
2023-04-17T00:01:32.276Z,1.60
2023-04-17T00:03:59.196Z,1.58
2023-04-17T00:06:27.043Z,1.23
2023-04-17T00:08:53.975Z,1.30
2023-04-17T00:11:21.298Z,1.40
2023-04-17T00:13:48.119Z,1.33
2023-04-17T00:16:14.951Z,2.00
2023-04-17T00:18:41.692Z,1.63
2023-04-17T00:21:08.478Z,1.13
2023-04-17T00:23:35.473Z,1.40
2023-04-17T00:26:02.267Z,1.42
2023-04-17T00:28:29.060Z,1.90
2023-04-17T00:30:58.149Z,1.13
2023-04-17T00:33:25.230Z,1.23
2023-04-17T00:35:52.202Z,1.73
2023-04-17T00:38:19.004Z,1.27
2023-04-17T00:40:46.201Z,0.85
2023-04-17T00:43:13.015Z,1.10
2023-04-17T00:45:40.218Z,1.48
2023-04-17T00:48:09.137Z,0.90
2023-04-17T00:50:36.333Z,1.70
2023-04-17T00:53:03.489Z,1.27
2023-04-17T00:55:32.144Z,1.02
2023-04-17T00:57:59.768Z,1.77
2023-04-17T01:00:26.728Z,0.70
2023-04-17T01:02:56.564Z,0.98
2023-04-17T01:05:25.622Z,0.85
2023-04-17T01:07:52.724Z,1.50
2023-04-17T01:10:19.719Z,1.15
2023-04-17T01:12:49.094Z,1.77
2023-04-17T01:15:16.295Z,0.80
2023-04-17T01:17:43.164Z,1.17
2023-04-17T01:20:11.942Z,1.27
2023-04-17T01:22:38.976Z,1.55
2023-04-17T01:25:06.511Z,1.23
2023-04-17T01:27:36.013Z,1.17
2023-04-17T01:30:02.941Z,1.40
2023-04-17T01:32:33.158Z,0.90
2023-04-17T01:35:00.176Z,1.25
2023-04-17T01:37:27.422Z,1.38
2023-04-17T01:39:55.562Z,1.27
2023-04-17T01:42:22.546Z,1.75
2023-04-17T01:44:49.354Z,1.90
2023-04-17T01:47:16.070Z,1.10
2023-04-17T01:49:44.631Z,1.30
2023-04-17T01:52:11.391Z,1.13
2023-04-17T01:54:38.139Z,0.90
2023-04-17T01:57:04.995Z,1.70
2023-04-17T01:59:31.704Z,1.45
2023-04-17T02:01:58.763Z,1.80
2023-04-17T02:04:25.596Z,1.20
2023-04-17T02:06:52.567Z,1.17
2023-04-17T02:09:19.318Z,1.63
2023-04-17T02:11:46.367Z,1.10
2023-04-17T02:14:13.075Z,1.15
2023-04-17T02:16:45.692Z,1.47
2023-04-17T02:19:13.508Z,1.50
2023-04-17T02:21:40.665Z,1.20
2023-04-17T02:24:07.463Z,0.87
2023-04-17T02:26:34.554Z,1.40
2023-04-17T02:29:01.349Z,1.20
2023-04-17T02:31:28.137Z,3.10
2023-04-17T02:33:54.931Z,2.30
2023-04-17T02:36:22.155Z,1.67
2023-04-17T02:38:48.875Z,1.00
2023-04-17T02:41:15.648Z,1.48
2023-04-17T02:43:42.910Z,1.15
2023-04-17T02:46:10.464Z,1.27
2023-04-17T02:48:37.259Z,1.30
2023-04-17T02:51:04.331Z,1.05
2023-04-17T02:53:31.181Z,1.00
2023-04-17T02:55:58.188Z,1.20
2023-04-17T02:58:25.164Z,1.40
2023-04-17T03:00:51.992Z,0.93
2023-04-17T03:03:19.755Z,0.88
2023-04-17T03:05:46.638Z,1.20
2023-04-17T03:08:13.451Z,1.10
2023-04-17T03:10:48.055Z,0.90
2023-04-17T03:13:14.785Z,1.20
2023-04-17T03:15:41.700Z,1.55
2023-04-17T03:18:08.531Z,1.85
2023-04-17T03:20:35.358Z,1.40
2023-04-17T03:23:02.391Z,1.52
2023-04-17T03:25:29.134Z,1.00
2023-04-17T03:27:56.456Z,1.00
2023-04-17T03:30:29.097Z,2.05
2023-04-17T03:32:58.360Z,1.20
2023-04-17T03:35:28.360Z,1.75
2023-04-17T03:37:55.285Z,1.13
2023-04-17T03:40:22.852Z,1.40
2023-04-17T03:42:49.632Z,1.70
2023-04-17T03:45:16.940Z,1.40
2023-04-17T03:47:43.984Z,1.52
2023-04-17T03:50:11.140Z,1.90
2023-04-17T03:52:44.289Z,1.20
2023-04-17T03:55:11.461Z,2.20
2023-04-17T03:57:38.561Z,2.85
2023-04-17T04:00:08.350Z,1.73
2023-04-17T04:02:45.340Z,1.17
2023-04-17T04:05:15.083Z,1.50
2023-04-17T04:07:42.779Z,2.63
2023-04-17T04:10:10.203Z,1.52
2023-04-17T04:12:37.074Z,1.92
2023-04-17T04:15:04.393Z,2.00
2023-04-17T04:17:33.849Z,1.60
2023-04-17T04:20:01.105Z,2.97
2023-04-17T04:22:29.103Z,1.80
2023-04-17T04:24:57.503Z,3.05
2023-04-17T04:27:33.497Z,1.70
2023-04-17T04:30:01.681Z,1.45
2023-04-17T04:32:33.938Z,1.67
2023-04-17T04:35:01.832Z,1.50
2023-04-17T04:37:29.905Z,2.47
2023-04-17T04:40:10.418Z,3.40
2023-04-17T04:42:41.934Z,2.13
2023-04-17T04:45:13.703Z,2.10
2023-04-17T04:47:42.887Z,1.60
2023-04-17T04:50:09.853Z,1.35
2023-04-17T04:52:36.924Z,3.00
2023-04-17T04:55:10.979Z,2.47
2023-04-17T04:57:44.650Z,1.48
2023-04-17T05:00:14.385Z,2.65
2023-04-17T05:02:46.213Z,1.73
2023-04-17T05:05:14.446Z,2.63
2023-04-17T05:07:41.807Z,1.70
2023-04-17T05:10:12.098Z,1.85
2023-04-17T05:12:44.331Z,1.60
2023-04-17T05:15:12.929Z,1.85
2023-04-17T05:17:39.911Z,1.75
2023-04-17T05:20:08.864Z,2.85
2023-04-17T05:22:43.061Z,2.10
2023-04-17T05:25:12.362Z,2.40
2023-04-17T05:27:39.129Z,2.83
2023-04-17T05:30:06.913Z,3.45
2023-04-17T05:32:34.983Z,3.15
2023-04-17T05:35:13.202Z,4.13
2023-04-17T05:37:40.871Z,5.78
2023-04-17T05:40:08.354Z,2.83
2023-04-17T05:42:35.226Z,5.37
2023-04-17T05:45:02.310Z,5.28
2023-04-17T05:47:29.247Z,5.93
2023-04-17T05:49:58.403Z,4.65
2023-04-17T05:52:28.070Z,4.87
2023-04-17T05:54:56.450Z,5.88
2023-04-17T05:57:23.820Z,11.07
2023-04-17T05:59:50.879Z,4.27
2023-04-17T06:02:17.864Z,7.45
2023-04-17T06:04:45.013Z,6.22
2023-04-17T06:07:12.236Z,7.13
2023-04-17T06:09:40.550Z,5.13
2023-04-17T06:12:07.574Z,6.30
2023-04-17T06:14:34.765Z,4.65
2023-04-17T06:17:05.706Z,6.53
2023-04-17T06:19:32.582Z,4.93
2023-04-17T06:22:00.142Z,5.73
2023-04-17T06:24:26.939Z,5.93
2023-04-17T06:26:55.137Z,7.20
2023-04-17T06:29:22.423Z,7.70
2023-04-17T06:31:49.394Z,6.53
2023-04-17T06:34:18.908Z,7.65
2023-04-17T06:36:47.470Z,6.30
2023-04-17T06:39:16.052Z,8.45
2023-04-17T06:41:42.939Z,5.03
2023-04-17T06:44:09.882Z,6.38
2023-04-17T06:46:50.953Z,7.40
2023-04-17T06:49:17.736Z,5.68
2023-04-17T06:51:45.925Z,6.50
2023-04-17T06:54:14.259Z,5.22
2023-04-17T06:56:41.084Z,5.83
2023-04-17T06:59:07.835Z,6.38
2023-04-17T07:01:35.100Z,5.82
2023-04-17T07:04:02.177Z,5.78
2023-04-17T07:06:29.241Z,6.87
2023-04-17T07:08:56.076Z,7.68
2023-04-17T07:11:22.843Z,5.78
2023-04-17T07:13:49.594Z,7.30
2023-04-17T07:16:16.488Z,7.13
2023-04-17T07:18:43.398Z,7.63
2023-04-17T07:21:10.249Z,5.77
2023-04-17T07:23:37.012Z,6.38
2023-04-17T07:26:03.868Z,5.90
2023-04-17T07:28:30.699Z,5.80
2023-04-17T07:30:58.641Z,6.82
2023-04-17T07:33:25.814Z,6.53
2023-04-17T07:35:53.940Z,6.43
2023-04-17T07:38:20.773Z,8.15
2023-04-17T07:40:47.562Z,6.25
2023-04-17T07:43:14.298Z,4.90
2023-04-17T07:45:41.919Z,6.43
2023-04-17T07:48:09.317Z,6.13
2023-04-17T07:50:36.209Z,7.53
2023-04-17T07:53:03.114Z,8.52
2023-04-17T07:55:29.994Z,6.47
2023-04-17T07:57:56.766Z,5.93
2023-04-17T08:00:23.969Z,6.72
2023-04-17T08:02:51.229Z,6.88
2023-04-17T08:05:18.142Z,6.70
2023-04-17T08:07:44.880Z,6.47
2023-04-17T08:10:11.737Z,5.72
2023-04-17T08:12:38.539Z,7.67
2023-04-17T08:15:05.737Z,7.18
2023-04-17T08:17:34.088Z,13.97
2023-04-17T08:20:02.162Z,11.88
2023-04-17T08:22:29.152Z,14.23
2023-04-17T08:24:59.626Z,18.50
2023-04-17T08:27:26.678Z,19.77
2023-04-17T08:29:54.149Z,18.27
2023-04-17T08:32:21.380Z,15.50
2023-04-17T08:34:48.301Z,19.52
2023-04-17T08:37:15.357Z,15.93
2023-04-17T08:39:42.184Z,15.35
2023-04-17T08:42:15.290Z,15.45
2023-04-17T08:44:45.525Z,14.98
2023-04-17T08:47:14.734Z,14.85
2023-04-17T08:49:43.789Z,16.75
2023-04-17T08:52:11.264Z,14.30
2023-04-17T08:54:38.821Z,12.52
2023-04-17T08:57:06.238Z,13.23
2023-04-17T08:59:33.565Z,19.47
2023-04-17T09:02:04.560Z,14.80
2023-04-17T09:04:37.346Z,15.48
2023-04-17T09:07:05.506Z,15.57
2023-04-17T09:09:52.669Z,14.15
2023-04-17T09:12:21.240Z,12.07
2023-04-17T09:14:48.233Z,13.93
2023-04-17T09:17:17.383Z,14.10
2023-04-17T09:20:07.992Z,14.32
2023-04-17T09:22:36.630Z,14.30
2023-04-17T09:25:04.394Z,13.85
2023-04-17T09:27:31.744Z,12.45
2023-04-17T09:30:04.118Z,13.15
2023-04-17T09:32:32.735Z,13.35
2023-04-17T09:35:01.519Z,14.70
2023-04-17T09:37:51.693Z,13.10
2023-04-17T09:40:20.190Z,11.65
2023-04-17T09:43:01.316Z,13.63
2023-04-17T09:45:40.069Z,13.27
2023-04-17T09:48:10.184Z,11.07
2023-04-17T09:50:38.791Z,11.40
2023-04-17T09:53:07.395Z,11.93
2023-04-17T09:55:36.414Z,12.02
2023-04-17T09:58:05.292Z,12.45
2023-04-17T10:00:32.306Z,13.50
2023-04-17T10:02:59.732Z,12.88
2023-04-17T10:05:29.148Z,14.27
2023-04-17T10:07:56.801Z,13.65
2023-04-17T10:10:33.536Z,12.20
2023-04-17T10:13:02.600Z,12.77
2023-04-17T10:15:30.391Z,13.00
2023-04-17T10:18:22.639Z,12.57
2023-04-17T10:20:50.606Z,14.70
2023-04-17T10:23:29.349Z,12.18
2023-04-17T10:26:28.093Z,12.45
2023-04-17T10:28:57.587Z,13.80
2023-04-17T10:32:03.103Z,13.38
2023-04-17T10:34:40.499Z,13.20
2023-04-17T10:37:14.989Z,13.80
2023-04-17T10:40:00.772Z,11.93
2023-04-17T10:42:30.159Z,13.10
2023-04-17T10:45:05.799Z,12.82
2023-04-17T10:47:36.028Z,13.07
2023-04-17T10:50:05.236Z,14.32
2023-04-17T10:52:32.052Z,12.68
2023-04-17T10:55:06.502Z,12.00
2023-04-17T10:57:59.800Z,12.27
2023-04-17T11:00:49.009Z,14.53
2023-04-17T11:03:16.434Z,12.95
2023-04-17T11:05:47.932Z,12.50
2023-04-17T11:08:15.470Z,12.85
2023-04-17T11:10:42.446Z,12.65
2023-04-17T11:13:10.376Z,13.47
2023-04-17T11:15:37.127Z,14.18
2023-04-17T11:18:04.384Z,13.68
2023-04-17T11:20:33.281Z,13.68
2023-04-17T11:23:04.685Z,13.20
2023-04-17T11:25:33.875Z,13.73
2023-04-17T11:28:03.889Z,13.32
2023-04-17T11:30:33.040Z,13.68
2023-04-17T11:33:04.905Z,13.40
2023-04-17T11:35:37.310Z,13.47
2023-04-17T11:38:04.970Z,13.55
2023-04-17T11:40:31.957Z,14.90
2023-04-17T11:43:07.826Z,13.50
2023-04-17T11:45:35.995Z,13.50
2023-04-17T11:48:03.789Z,12.10
2023-04-17T11:50:32.118Z,14.38
2023-04-17T11:53:01.025Z,13.45
2023-04-17T11:55:31.224Z,14.23
2023-04-17T11:57:58.528Z,13.68
2023-04-17T12:00:29.966Z,14.15
2023-04-17T12:02:58.508Z,13.73
2023-04-17T12:05:26.563Z,14.63
2023-04-17T12:08:04.369Z,13.83
2023-04-17T12:10:42.555Z,13.57
2023-04-17T12:13:12.164Z,13.55
2023-04-17T12:15:39.094Z,14.40
2023-04-17T12:18:06.705Z,13.82
2023-04-17T12:20:34.822Z,15.32
2023-04-17T12:23:02.044Z,13.07
2023-04-17T12:25:28.846Z,14.85
2023-04-17T12:27:57.053Z,13.37
2023-04-17T12:30:24.301Z,13.23
2023-04-17T12:32:52.142Z,13.77
2023-04-17T12:35:20.614Z,12.93
2023-04-17T12:37:53.836Z,13.25
2023-04-17T12:40:24.276Z,13.18
2023-04-17T12:42:51.602Z,14.23
2023-04-17T12:45:19.313Z,13.10
2023-04-17T12:47:46.235Z,13.95
2023-04-17T12:50:13.445Z,13.77
2023-04-17T12:52:41.234Z,14.02
2023-04-17T12:55:09.332Z,12.88
2023-04-17T12:57:36.616Z,12.32
2023-04-17T13:00:07.182Z,13.20
2023-04-17T13:02:34.270Z,14.13
2023-04-17T13:05:01.175Z,13.17
2023-04-17T13:07:28.863Z,13.65
2023-04-17T13:09:55.772Z,13.82
2023-04-17T13:12:22.761Z,13.43
2023-04-17T13:14:49.539Z,13.43
2023-04-17T13:17:17.618Z,12.60
2023-04-17T13:19:44.795Z,11.77
2023-04-17T13:22:12.265Z,13.27
2023-04-17T13:24:39.083Z,14.02
2023-04-17T13:27:06.876Z,13.15
2023-04-17T13:29:33.680Z,12.95
2023-04-17T13:32:00.659Z,12.82
2023-04-17T13:34:27.585Z,11.77
2023-04-17T13:36:57.622Z,13.35
2023-04-17T13:39:24.475Z,12.18
2023-04-17T13:41:51.187Z,13.23
2023-04-17T13:44:18.737Z,13.50
2023-04-17T13:46:45.935Z,12.55
2023-04-17T13:49:13.150Z,12.07
2023-04-17T13:51:40.338Z,12.35
2023-04-17T13:54:08.558Z,11.93
2023-04-17T13:56:35.433Z,12.50
2023-04-17T13:59:04.197Z,12.07
2023-04-17T14:01:31.476Z,11.50
2023-04-17T14:04:01.649Z,12.13
2023-04-17T14:06:31.126Z,11.02
2023-04-17T14:08:58.068Z,11.70
2023-04-17T14:11:24.864Z,10.60
2023-04-17T14:13:51.697Z,11.05
2023-04-17T14:16:19.194Z,10.95
2023-04-17T14:18:49.884Z,10.65
2023-04-17T14:21:17.151Z,10.70
2023-04-17T14:23:44.854Z,11.82
2023-04-17T14:26:12.300Z,11.27
2023-04-17T14:28:39.719Z,9.93
2023-04-17T14:31:06.717Z,10.50
2023-04-17T14:33:33.624Z,9.50
2023-04-17T14:36:00.478Z,11.20
2023-04-17T14:38:27.372Z,9.82
2023-04-17T14:40:54.338Z,9.60
2023-04-17T14:43:21.091Z,11.20
2023-04-17T14:45:47.929Z,10.23
2023-04-17T14:48:14.811Z,9.98
2023-04-17T14:50:41.603Z,10.43
2023-04-17T14:53:08.389Z,10.77
2023-04-17T14:55:36.980Z,10.60
2023-04-17T14:58:03.869Z,10.55
2023-04-17T15:00:31.831Z,10.13
2023-04-17T15:02:58.661Z,10.52
2023-04-17T15:05:26.324Z,10.52
2023-04-17T15:07:53.596Z,9.77
2023-04-17T15:10:20.425Z,10.32
2023-04-17T15:12:47.389Z,11.15
2023-04-17T15:15:14.156Z,10.90
2023-04-17T15:17:41.176Z,10.63
2023-04-17T15:20:08.706Z,10.63
2023-04-17T15:22:35.529Z,10.70
2023-04-17T15:25:02.349Z,10.57
2023-04-17T15:27:29.086Z,12.35
2023-04-17T15:29:55.996Z,11.98
2023-04-17T15:32:22.890Z,10.88
2023-04-17T15:34:49.672Z,10.82
2023-04-17T15:37:16.553Z,10.43
2023-04-17T15:39:43.818Z,10.60
2023-04-17T15:42:11.801Z,11.73
2023-04-17T15:44:38.692Z,11.75
2023-04-17T15:47:06.736Z,10.93
2023-04-17T15:49:33.708Z,11.65
2023-04-17T15:52:00.937Z,10.70
2023-04-17T15:54:28.022Z,12.45
2023-04-17T15:56:56.672Z,11.85
2023-04-17T15:59:23.797Z,10.52
2023-04-17T16:01:52.850Z,11.07
2023-04-17T16:04:20.057Z,11.00
2023-04-17T16:06:47.069Z,11.20
2023-04-17T16:09:17.661Z,10.40
2023-04-17T16:11:44.602Z,12.23
2023-04-17T16:14:11.345Z,12.80
2023-04-17T16:16:38.102Z,10.43
2023-04-17T16:19:04.982Z,11.45
2023-04-17T16:21:31.937Z,11.05
2023-04-17T16:23:58.819Z,11.98
2023-04-17T16:26:26.044Z,12.50
2023-04-17T16:28:52.811Z,10.55
2023-04-17T16:31:21.259Z,12.90
2023-04-17T16:33:48.332Z,11.53
2023-04-17T16:36:15.205Z,12.52
2023-04-17T16:38:41.959Z,12.80
2023-04-17T16:41:08.902Z,11.43
2023-04-17T16:43:35.629Z,12.05
2023-04-17T16:46:11.014Z,12.10
2023-04-17T16:48:45.943Z,12.13
2023-04-17T16:51:12.819Z,12.25
2023-04-17T16:53:41.133Z,10.68
2023-04-17T16:56:08.304Z,13.47
2023-04-17T16:58:35.098Z,11.77
2023-04-17T17:01:01.867Z,10.80
2023-04-17T17:03:28.926Z,13.57
2023-04-17T17:05:57.377Z,11.55
2023-04-17T17:08:24.131Z,12.07
2023-04-17T17:10:51.457Z,12.85
2023-04-17T17:13:18.168Z,10.25
2023-04-17T17:15:45.299Z,11.00
2023-04-17T17:18:12.087Z,11.30
2023-04-17T17:20:38.795Z,11.75
2023-04-17T17:23:05.784Z,11.50
2023-04-17T17:25:32.741Z,10.32
2023-04-17T17:27:59.533Z,10.65
2023-04-17T17:30:26.361Z,11.45
2023-04-17T17:32:53.261Z,10.00
2023-04-17T17:35:20.219Z,11.73
2023-04-17T17:37:46.926Z,11.23
2023-04-17T17:40:13.736Z,10.23
2023-04-17T17:42:41.483Z,10.23
2023-04-17T17:45:08.841Z,11.13
2023-04-17T17:47:35.749Z,10.48
2023-04-17T17:50:02.787Z,8.93
2023-04-17T17:52:29.646Z,9.45
2023-04-17T17:54:56.386Z,10.17
2023-04-17T17:57:23.197Z,9.38
2023-04-17T17:59:50.128Z,10.18
2023-04-17T18:02:17.095Z,9.73
2023-04-17T18:04:44.120Z,9.82
2023-04-17T18:07:10.988Z,9.93
2023-04-17T18:09:37.620Z,9.50
2023-04-17T18:12:04.750Z,11.15
2023-04-17T18:14:31.769Z,9.32
2023-04-17T18:16:58.676Z,9.77
2023-04-17T18:19:25.566Z,11.43
2023-04-17T18:21:52.430Z,11.38
2023-04-17T18:24:19.271Z,9.52
2023-04-17T18:26:46.367Z,10.70
2023-04-17T18:29:13.145Z,10.00
2023-04-17T18:31:40.004Z,9.00
2023-04-17T18:34:06.798Z,9.80
2023-04-17T18:36:33.740Z,10.00
2023-04-17T18:39:00.527Z,9.07
2023-04-17T18:41:27.377Z,9.55
2023-04-17T18:43:54.245Z,9.00
2023-04-17T18:46:21.877Z,9.20
2023-04-17T18:48:48.649Z,9.27
2023-04-17T18:51:15.514Z,9.43
2023-04-17T18:53:42.491Z,11.05
2023-04-17T18:56:10.766Z,9.15
2023-04-17T18:58:40.060Z,8.30
2023-04-17T19:01:08.651Z,10.30
2023-04-17T19:03:35.757Z,9.63
2023-04-17T19:06:02.734Z,9.57
2023-04-17T19:08:29.910Z,9.95
2023-04-17T19:10:56.720Z,10.05
2023-04-17T19:13:24.225Z,8.23
2023-04-17T19:15:51.058Z,9.18
2023-04-17T19:18:17.851Z,9.57
2023-04-17T19:20:44.574Z,10.07
2023-04-17T19:23:11.467Z,9.18
2023-04-17T19:25:38.566Z,9.13
2023-04-17T19:28:05.715Z,8.95
2023-04-17T19:30:32.587Z,10.50
2023-04-17T19:32:59.597Z,10.25
2023-04-17T19:35:26.493Z,9.88
2023-04-17T19:37:53.186Z,9.88
2023-04-17T19:40:24.984Z,9.60
2023-04-17T19:42:52.689Z,8.82
2023-04-17T19:45:20.743Z,9.57
2023-04-17T19:47:54.545Z,8.68
2023-04-17T19:50:22.293Z,9.80
2023-04-17T19:52:49.136Z,9.77
2023-04-17T19:55:15.956Z,9.55
2023-04-17T19:57:44.696Z,7.90
2023-04-17T20:00:12.645Z,9.77
2023-04-17T20:02:39.558Z,9.52
2023-04-17T20:05:07.156Z,9.70
2023-04-17T20:07:34.060Z,8.52
2023-04-17T20:10:01.568Z,9.43
2023-04-17T20:12:28.474Z,8.77
2023-04-17T20:14:55.295Z,9.20
2023-04-17T20:17:22.100Z,9.18
2023-04-17T20:19:48.962Z,9.50
2023-04-17T20:22:16.030Z,10.13
2023-04-17T20:24:42.817Z,9.57
2023-04-17T20:27:09.487Z,10.10
2023-04-17T20:29:36.274Z,11.10
2023-04-17T20:32:04.094Z,9.80
2023-04-17T20:34:34.890Z,8.80
2023-04-17T20:37:02.045Z,10.27
2023-04-17T20:39:29.153Z,9.70
2023-04-17T20:41:56.317Z,10.13
2023-04-17T20:44:23.133Z,10.02
2023-04-17T20:46:50.057Z,8.75
2023-04-17T20:49:16.909Z,10.00
2023-04-17T20:51:44.315Z,9.82
2023-04-17T20:54:11.349Z,8.52
2023-04-17T20:56:38.190Z,9.32
2023-04-17T20:59:04.877Z,10.50
2023-04-17T21:01:31.858Z,9.88
2023-04-17T21:03:58.702Z,9.80
2023-04-17T21:06:26.645Z,9.02
2023-04-17T21:08:53.929Z,9.30
2023-04-17T21:11:21.369Z,9.13
2023-04-17T21:13:48.494Z,10.38
2023-04-17T21:16:15.461Z,9.57
2023-04-17T21:18:42.282Z,8.23
2023-04-17T21:21:09.238Z,9.52
2023-04-17T21:23:35.988Z,10.55
2023-04-17T21:26:02.932Z,9.43
2023-04-17T21:28:29.768Z,9.55
2023-04-17T21:30:56.510Z,8.93
2023-04-17T21:33:23.296Z,10.63
2023-04-17T21:35:50.129Z,8.95
2023-04-17T21:38:16.929Z,10.27
2023-04-17T21:40:51.030Z,8.80
2023-04-17T21:43:18.487Z,8.90
2023-04-17T21:45:46.698Z,9.15
2023-04-17T21:48:15.367Z,7.90
2023-04-17T21:50:43.180Z,10.27
2023-04-17T21:53:09.961Z,10.55
2023-04-17T21:55:38.144Z,9.68
2023-04-17T21:58:04.848Z,9.25
2023-04-17T22:00:31.576Z,9.60
2023-04-17T22:02:59.305Z,9.50
2023-04-17T22:05:25.999Z,8.57
2023-04-17T22:07:55.445Z,10.90
2023-04-17T22:10:23.268Z,10.57
2023-04-17T22:12:51.219Z,8.48
2023-04-17T22:15:18.058Z,10.57
2023-04-17T22:17:44.934Z,9.43
2023-04-17T22:20:12.271Z,10.77
2023-04-17T22:22:39.012Z,9.93
2023-04-17T22:25:06.171Z,8.77
2023-04-17T22:27:32.906Z,9.68
2023-04-17T22:29:59.667Z,9.23
2023-04-17T22:32:26.484Z,9.60
2023-04-17T22:34:53.147Z,10.15
2023-04-17T22:37:19.981Z,10.40
2023-04-17T22:39:46.628Z,9.73
2023-04-17T22:42:13.440Z,9.37
2023-04-17T22:44:40.204Z,9.30
2023-04-17T22:47:06.968Z,10.88
2023-04-17T22:49:37.922Z,9.73
2023-04-17T22:52:06.089Z,9.38
2023-04-17T22:54:33.899Z,9.18
2023-04-17T22:57:02.166Z,9.95
2023-04-17T22:59:29.688Z,9.70
2023-04-17T23:01:56.653Z,9.17
2023-04-17T23:04:24.007Z,10.20
2023-04-17T23:06:50.763Z,10.32
2023-04-17T23:09:17.597Z,8.95
2023-04-17T23:11:44.377Z,9.93
2023-04-17T23:14:11.594Z,9.85
2023-04-17T23:16:38.612Z,9.27
2023-04-17T23:19:05.477Z,9.73
2023-04-17T23:21:32.285Z,9.75
2023-04-17T23:23:59.080Z,8.55
2023-04-17T23:26:25.887Z,9.02
2023-04-17T23:28:52.713Z,8.40
2023-04-17T23:31:19.596Z,9.97
2023-04-17T23:33:46.439Z,9.48
2023-04-17T23:36:13.582Z,9.60
2023-04-17T23:38:41.346Z,8.93
2023-04-17T23:41:09.090Z,8.48
2023-04-17T23:43:35.837Z,9.03
2023-04-17T23:46:02.648Z,8.40
2023-04-17T23:48:29.485Z,8.23
2023-04-17T23:50:56.295Z,9.13
2023-04-17T23:53:23.006Z,9.20
2023-04-17T23:55:49.753Z,8.95
2023-04-17T23:58:16.512Z,8.80
